createdAt,value
2022-11-04T00:00:15.832Z,96368.91
2022-11-04T00:02:42.230Z,96362.75
2022-11-04T00:05:08.763Z,96379.38
2022-11-04T00:07:35.025Z,96372.22
2022-11-04T00:10:01.370Z,96370.69
2022-11-04T00:12:27.650Z,96362.75
2022-11-04T00:14:53.947Z,96363.06
2022-11-04T00:17:21.071Z,96362.84
2022-11-04T00:19:47.376Z,96378.13
2022-11-04T00:22:13.656Z,96367.53
2022-11-04T00:24:39.972Z,96375.31
2022-11-04T00:27:06.289Z,96381.22
2022-11-04T00:29:32.525Z,96392.44
2022-11-04T00:31:58.802Z,96394.09
2022-11-04T00:34:25.110Z,96389.31
2022-11-04T00:36:51.466Z,96387.22
2022-11-04T00:39:17.733Z,96395.00
2022-11-04T00:41:44.237Z,96399.81
2022-11-04T00:46:58.147Z,96402.81
2022-11-04T00:49:24.542Z,96403.09
2022-11-04T00:51:51.043Z,96395.66
2022-11-04T00:54:17.361Z,96404.22
2022-11-04T00:56:43.790Z,96417.84
2022-11-04T00:59:13.445Z,96417.31
2022-11-04T01:01:41.279Z,96424.03
2022-11-04T01:04:07.645Z,96436.03
2022-11-04T01:06:33.916Z,96429.41
2022-11-04T01:09:00.279Z,96431.56
2022-11-04T01:11:26.628Z,96434.50
2022-11-04T01:13:52.961Z,96454.53
2022-11-04T01:16:19.363Z,96437.22
2022-11-04T01:18:45.725Z,96439.38
2022-11-04T01:21:12.002Z,96425.78
2022-11-04T01:23:38.342Z,96443.94
2022-11-04T01:26:04.710Z,96442.38
2022-11-04T01:28:31.184Z,96453.28
2022-11-04T01:30:58.660Z,96457.28
2022-11-04T01:33:24.985Z,96437.00
2022-11-04T01:35:51.324Z,96450.91
2022-11-04T01:38:17.673Z,96462.66
2022-11-04T01:40:44.520Z,96479.72
2022-11-04T01:43:11.076Z,96461.34
2022-11-04T01:45:37.924Z,96444.03
2022-11-04T01:48:04.240Z,96449.63
2022-11-04T01:50:30.582Z,96460.28
2022-11-04T01:52:57.000Z,96448.84
2022-11-04T01:55:23.282Z,96449.13
2022-11-04T01:57:50.376Z,96452.03
2022-11-04T02:00:16.685Z,96451.28
2022-11-04T02:02:42.965Z,96446.22
2022-11-04T02:05:09.248Z,96440.38
2022-11-04T02:07:35.486Z,96441.69
2022-11-04T02:10:01.787Z,96441.19
2022-11-04T02:12:28.088Z,96444.13
2022-11-04T02:14:54.405Z,96431.06
2022-11-04T02:17:21.127Z,96434.03
2022-11-04T02:19:47.402Z,96433.50
2022-11-04T02:22:13.722Z,96430.31
2022-11-04T02:24:39.970Z,96431.41
2022-11-04T02:27:06.640Z,96440.44
2022-11-04T02:29:32.906Z,96438.88
2022-11-04T02:31:59.201Z,96446.34
2022-11-04T02:34:26.220Z,96442.09
2022-11-04T02:36:52.490Z,96445.81
2022-11-04T02:39:18.828Z,96453.28
2022-11-04T02:41:45.428Z,96460.78
2022-11-04T02:44:11.715Z,96451.97
2022-11-04T02:46:37.985Z,96452.25
2022-11-04T02:49:04.259Z,96469.31
2022-11-04T02:51:30.805Z,96483.72
2022-11-04T02:53:57.200Z,96487.44
2022-11-04T02:56:23.437Z,96496.50
2022-11-04T02:58:49.830Z,96502.13
2022-11-04T03:01:16.149Z,96525.28
2022-11-04T03:03:42.557Z,96527.41
2022-11-04T03:06:08.988Z,96534.63
2022-11-04T03:08:35.477Z,96536.50
2022-11-04T03:11:01.855Z,96533.31
2022-11-04T03:13:28.193Z,96533.31
2022-11-04T03:15:54.542Z,96535.97
2022-11-04T03:18:20.928Z,96542.38
2022-11-04T03:20:47.224Z,96540.78
2022-11-04T03:23:13.485Z,96542.91
2022-11-04T03:25:39.776Z,96552.50
2022-11-04T03:28:06.293Z,96554.63
2022-11-04T03:30:33.729Z,96547.72
2022-11-04T03:33:00.696Z,96548.78
2022-11-04T03:35:26.975Z,96553.56
2022-11-04T03:37:53.558Z,96561.56
2022-11-04T03:40:20.950Z,96562.66
2022-11-04T03:42:49.597Z,96570.13
2022-11-04T03:45:16.164Z,96569.59
2022-11-04T03:47:42.461Z,96576.75
2022-11-04T03:50:08.739Z,96566.38
2022-11-04T03:52:35.076Z,96571.72
2022-11-04T03:55:01.400Z,96576.25
2022-11-04T03:57:28.641Z,96581.84
2022-11-04T03:59:55.034Z,96572.25
2022-11-04T04:02:22.254Z,96584.00
2022-11-04T04:04:49.217Z,96585.03
2022-11-04T04:07:16.175Z,96586.41
2022-11-04T04:09:42.453Z,96595.44
2022-11-04T04:12:08.727Z,96589.59
2022-11-04T04:14:35.045Z,96600.50
2022-11-04T04:17:01.722Z,96598.13
2022-11-04T04:19:28.068Z,96605.31
2022-11-04T04:21:55.331Z,96601.31
2022-11-04T04:24:21.607Z,96600.53
2022-11-04T04:26:47.877Z,96610.63
2022-11-04T04:29:14.198Z,96610.88
2022-11-04T04:31:40.606Z,96617.28
2022-11-04T04:34:06.895Z,96624.47
2022-11-04T04:36:33.162Z,96620.47
2022-11-04T04:38:59.837Z,96615.41
2022-11-04T04:41:26.109Z,96619.41
2022-11-04T04:43:53.183Z,96618.88
2022-11-04T04:46:19.536Z,96612.22
2022-11-04T04:48:45.824Z,96621.56
2022-11-04T04:51:12.113Z,96606.91
2022-11-04T04:53:38.388Z,96631.66
2022-11-04T04:56:04.678Z,96633.53
2022-11-04T04:58:30.978Z,96628.75
2022-11-04T05:00:58.224Z,96634.06
2022-11-04T05:03:24.557Z,96614.09
2022-11-04T05:05:52.615Z,96607.44
2022-11-04T05:08:21.290Z,96627.94
2022-11-04T05:10:47.564Z,96631.41
2022-11-04T05:13:13.880Z,96638.56
2022-11-04T05:15:40.282Z,96643.38
2022-11-04T05:18:07.709Z,96658.28
2022-11-04T05:20:34.687Z,96657.50
2022-11-04T05:23:01.043Z,96658.03
2022-11-04T05:25:27.686Z,96666.53
2022-11-04T05:27:54.545Z,96675.59
2022-11-04T05:30:20.784Z,96688.63
2022-11-04T05:32:47.079Z,96703.53
2022-11-04T05:35:13.403Z,96695.81
2022-11-04T05:37:39.752Z,96688.06
2022-11-04T05:40:06.091Z,96693.66
2022-11-04T05:42:33.118Z,96696.81
2022-11-04T05:44:59.420Z,96713.88
2022-11-04T05:47:25.731Z,96706.41
2022-11-04T05:49:52.056Z,96706.94
2022-11-04T05:52:18.509Z,96719.72
2022-11-04T05:54:44.832Z,96726.41
2022-11-04T05:57:11.104Z,96738.38
2022-11-04T05:59:37.617Z,96741.59
2022-11-04T06:02:04.356Z,96749.31
2022-11-04T06:04:30.798Z,96743.97
2022-11-04T06:06:57.214Z,96746.38
2022-11-04T06:09:23.461Z,96753.31
2022-11-04T06:11:50.329Z,96751.19
2022-11-04T06:14:18.914Z,96757.28
2022-11-04T06:16:45.409Z,96760.75
2022-11-04T06:19:15.887Z,96775.69
2022-11-04T06:21:42.683Z,96772.78
2022-11-04T06:24:08.957Z,96780.78
2022-11-04T06:26:35.252Z,96772.53
2022-11-04T06:29:01.622Z,96776.78
2022-11-04T06:31:28.677Z,96770.41
2022-11-04T06:33:54.945Z,96778.91
2022-11-04T06:36:21.496Z,96770.13
2022-11-04T06:38:48.942Z,96769.84
2022-11-04T06:41:15.446Z,96765.03
2022-11-04T06:43:41.766Z,96755.97
2022-11-04T06:46:08.020Z,96768.75
2022-11-04T06:48:34.354Z,96766.31
2022-11-04T06:51:01.201Z,96779.38
2022-11-04T06:53:27.645Z,96771.91
2022-11-04T06:55:54.088Z,96775.94
2022-11-04T06:58:20.610Z,96774.56
2022-11-04T07:00:47.231Z,96776.19
2022-11-04T07:03:13.759Z,96785.50
2022-11-04T07:05:40.049Z,96787.91
2022-11-04T07:08:06.840Z,96791.09
2022-11-04T07:10:34.465Z,96789.22
2022-11-04T07:13:01.116Z,96798.84
2022-11-04T07:15:27.759Z,96803.09
2022-11-04T07:17:55.126Z,96797.47
2022-11-04T07:20:21.444Z,96807.06
2022-11-04T07:22:47.797Z,96806.03
2022-11-04T07:25:14.228Z,96813.22
2022-11-04T07:27:40.573Z,96823.63
2022-11-04T07:30:06.828Z,96816.41
2022-11-04T07:32:33.115Z,96822.84
2022-11-04T07:35:01.350Z,96823.63
2022-11-04T07:37:27.969Z,96819.91
2022-11-04T07:39:54.359Z,96824.16
2022-11-04T07:42:20.688Z,96826.81
2022-11-04T07:44:46.941Z,96827.63
2022-11-04T07:47:13.249Z,96831.88
2022-11-04T07:49:39.640Z,96827.34
2022-11-04T07:52:06.035Z,96836.16
2022-11-04T07:54:32.332Z,96834.28
2022-11-04T07:56:58.671Z,96828.69
2022-11-04T07:59:25.035Z,96835.63
2022-11-04T08:01:51.857Z,96827.06
2022-11-04T08:04:18.955Z,96827.59
2022-11-04T08:06:45.321Z,96819.03
2022-11-04T08:09:11.808Z,96819.56
2022-11-04T08:11:38.231Z,96828.91
2022-11-04T08:14:04.511Z,96827.53
2022-11-04T08:16:34.266Z,96840.09
2022-11-04T08:19:00.960Z,96844.88
2022-11-04T08:21:27.597Z,96849.66
2022-11-04T08:23:53.951Z,96862.47
2022-11-04T08:26:20.292Z,96865.66
2022-11-04T08:28:48.047Z,96868.84
2022-11-04T08:31:14.319Z,96865.91
2022-11-04T08:33:41.250Z,96871.78
2022-11-04T08:36:07.518Z,96871.25
2022-11-04T08:38:33.848Z,96873.66
2022-11-04T08:41:00.557Z,96867.22
2022-11-04T08:43:27.201Z,96859.72
2022-11-04T08:45:53.620Z,96862.16
2022-11-04T08:48:20.002Z,96853.88
2022-11-04T08:50:47.630Z,96854.41
2022-11-04T08:53:14.025Z,96842.66
2022-11-04T08:55:40.680Z,96842.66
2022-11-04T08:58:09.497Z,96839.44
2022-11-04T09:00:36.041Z,96845.53
2022-11-04T09:03:02.369Z,96856.75
2022-11-04T09:05:28.731Z,96853.81
2022-11-04T09:07:55.109Z,96849.81
2022-11-04T09:10:21.456Z,96846.03
2022-11-04T09:12:48.848Z,96836.97
2022-11-04T09:15:15.161Z,96835.59
2022-11-04T09:17:41.515Z,96834.28
2022-11-04T09:20:07.849Z,96838.00
2022-11-04T09:22:34.096Z,96839.31
2022-11-04T09:25:00.503Z,96842.22
2022-11-04T09:27:26.902Z,96836.06
2022-11-04T09:29:53.217Z,96822.13
2022-11-04T09:32:20.114Z,96834.66
2022-11-04T09:34:46.548Z,96827.97
2022-11-04T09:37:12.857Z,96826.34
2022-11-04T09:39:39.171Z,96811.31
2022-11-04T09:42:06.487Z,96807.03
2022-11-04T09:44:33.132Z,96820.91
2022-11-04T09:46:59.494Z,96820.59
2022-11-04T09:49:25.802Z,96825.09
2022-11-04T09:51:54.871Z,96845.13
2022-11-04T09:54:22.034Z,96857.16
2022-11-04T09:56:48.622Z,96856.03
2022-11-04T09:59:16.393Z,96865.13
2022-11-04T10:01:42.872Z,96866.94
2022-11-04T10:04:09.236Z,96860.78
2022-11-04T10:06:35.897Z,96867.16
2022-11-04T10:09:02.302Z,96869.78
2022-11-04T10:11:28.555Z,96879.94
2022-11-04T10:13:54.829Z,96882.03
2022-11-04T10:16:21.143Z,96885.75
2022-11-04T10:18:47.649Z,96886.78
2022-11-04T10:21:14.026Z,96879.28
2022-11-04T10:23:41.281Z,96885.94
2022-11-04T10:26:07.569Z,96885.09
2022-11-04T10:28:33.869Z,96888.28
2022-11-04T10:31:00.132Z,96882.38
2022-11-04T10:33:27.329Z,96870.03
2022-11-04T10:35:53.639Z,96867.56
2022-11-04T10:38:19.941Z,96861.66
2022-11-04T10:40:46.254Z,96859.50
2022-11-04T10:43:12.728Z,96854.94
2022-11-04T10:45:39.136Z,96847.44
2022-11-04T10:48:05.440Z,96852.44
2022-11-04T10:50:33.327Z,96853.75
2022-11-04T10:52:59.753Z,96858.03
2022-11-04T10:55:26.025Z,96862.00
2022-11-04T10:57:52.302Z,96860.63
2022-11-04T11:00:18.721Z,96863.31
2022-11-04T11:02:45.024Z,96863.03
2022-11-04T11:05:11.435Z,96866.22
2022-11-04T11:07:37.751Z,96865.38
2022-11-04T11:10:04.048Z,96869.97
2022-11-04T11:12:49.918Z,96873.16
2022-11-04T11:15:16.882Z,96875.63
2022-11-04T11:17:44.654Z,96878.53
2022-11-04T11:20:10.968Z,96883.88
2022-11-04T11:22:37.873Z,96873.75
2022-11-04T11:25:04.134Z,96866.00
2022-11-04T11:27:30.438Z,96863.31
2022-11-04T11:29:56.958Z,96856.38
2022-11-04T11:32:23.326Z,96862.50
2022-11-04T11:34:49.703Z,96860.88
2022-11-04T11:37:16.754Z,96859.78
2022-11-04T11:39:43.280Z,96863.50
2022-11-04T11:42:09.602Z,96861.94
2022-11-04T11:44:35.968Z,96859.53
2022-11-04T11:47:02.244Z,96862.44
2022-11-04T11:49:29.177Z,96860.00
2022-11-04T11:51:55.534Z,96867.47
2022-11-04T11:54:22.871Z,96862.03
2022-11-04T11:57:12.583Z,96859.94
2022-11-04T12:02:22.073Z,96856.81
2022-11-04T12:10:44.687Z,96864.78
2022-11-04T12:13:09.332Z,96865.28
2022-11-04T12:15:44.560Z,96868.50
2022-11-04T12:18:11.538Z,96868.50
2022-11-04T12:20:38.767Z,96870.06
2022-11-04T12:23:05.037Z,96869.03
2022-11-04T12:25:31.901Z,96878.47
2022-11-04T12:27:58.147Z,96879.22
2022-11-04T12:30:32.390Z,96877.66
2022-11-04T12:33:00.243Z,96882.19
2022-11-04T12:35:26.653Z,96891.84
2022-11-04T12:37:53.034Z,96895.31
2022-11-04T12:40:19.365Z,96874.81
2022-11-04T12:42:45.642Z,96898.50
2022-11-04T12:45:11.931Z,96903.56
2022-11-04T12:47:38.260Z,96887.78
2022-11-04T12:50:04.540Z,96888.59
2022-11-04T12:52:31.333Z,96887.78
2022-11-04T12:54:58.062Z,96889.41
2022-11-04T12:57:24.376Z,96885.91
2022-11-04T12:59:51.146Z,96891.00
2022-11-04T13:02:18.062Z,96887.47
2022-11-04T13:04:44.626Z,96895.50
2022-11-04T13:07:10.918Z,96892.03
2022-11-04T13:09:37.298Z,96885.78
2022-11-04T13:12:03.593Z,96891.38
2022-11-04T13:14:29.963Z,96891.91
2022-11-04T13:16:56.262Z,96877.41
2022-11-04T13:19:22.697Z,96882.97
2022-11-04T13:21:49.212Z,96887.00
2022-11-04T13:24:15.459Z,96884.31
2022-11-04T13:26:41.841Z,96884.59
2022-11-04T13:29:09.885Z,96886.75
2022-11-04T13:31:36.569Z,96893.47
2022-11-04T13:34:03.034Z,96890.78
2022-11-04T13:36:29.343Z,96890.31
2022-11-04T13:38:55.623Z,96906.94
2022-11-04T13:41:22.563Z,96898.38
2022-11-04T13:43:49.024Z,96897.91
2022-11-04T13:46:15.556Z,96904.59
2022-11-04T13:48:42.055Z,96910.25
2022-11-04T13:51:08.385Z,96913.22
2022-11-04T13:53:34.667Z,96919.66
2022-11-04T13:56:27.981Z,96914.56
2022-11-04T13:58:48.226Z,96925.28
2022-11-04T14:01:14.507Z,96928.25
2022-11-04T14:03:41.584Z,96930.41
2022-11-04T14:06:08.773Z,96929.63
2022-11-04T14:08:35.028Z,96931.78
2022-11-04T14:11:01.274Z,96927.50
2022-11-04T14:13:27.555Z,96931.28
2022-11-04T14:15:53.839Z,96932.34
2022-11-04T14:18:20.221Z,96937.97
2022-11-04T14:20:46.555Z,96933.72
2022-11-04T14:23:12.840Z,96942.03
2022-11-04T14:25:39.099Z,96945.75
2022-11-04T14:28:05.405Z,96949.53
2022-11-04T14:30:31.716Z,96953.28
2022-11-04T14:32:57.999Z,96954.38
2022-11-04T14:35:24.326Z,96963.50
2022-11-04T14:37:55.943Z,96965.38
2022-11-04T14:40:22.522Z,96955.81
2022-11-04T14:42:48.758Z,96969.09
2022-11-04T14:45:15.065Z,96969.91
2022-11-04T14:47:41.389Z,96975.56
2022-11-04T14:50:07.705Z,96979.31
2022-11-04T14:52:33.984Z,96991.91
2022-11-04T14:55:00.317Z,97005.28
2022-11-04T14:57:26.566Z,97006.38
2022-11-04T14:59:52.915Z,97001.03
2022-11-04T15:02:19.371Z,97003.19
2022-11-04T15:04:45.723Z,97002.38
2022-11-04T15:07:11.995Z,96999.97
2022-11-04T15:09:38.313Z,97007.22
2022-11-04T15:12:04.569Z,97009.06
2022-11-04T15:14:30.836Z,97003.22
2022-11-04T15:16:57.140Z,97013.41
2022-11-04T15:19:23.970Z,97007.25
2022-11-04T15:21:50.477Z,97017.44
2022-11-04T15:24:16.835Z,97018.53
2022-11-04T15:26:43.094Z,97013.47
2022-11-04T15:29:09.394Z,97021.50
2022-11-04T15:31:35.717Z,97027.09
2022-11-04T15:34:02.366Z,97027.38
2022-11-04T15:36:28.704Z,97028.47
2022-11-04T15:38:55.019Z,97040.25
2022-11-04T15:41:21.296Z,97033.31
2022-11-04T15:43:47.509Z,97030.91
2022-11-04T15:46:13.773Z,97033.88
2022-11-04T15:48:40.071Z,97034.94
2022-11-04T15:51:06.998Z,97032.25
2022-11-04T15:53:33.261Z,97030.94
2022-11-04T15:55:59.639Z,97038.16
2022-11-04T15:58:25.927Z,97039.25
2022-11-04T16:00:53.388Z,97050.25
2022-11-04T16:03:19.676Z,97050.50
2022-11-04T16:05:46.054Z,97043.03
2022-11-04T16:08:12.431Z,97047.84
2022-11-04T16:10:38.763Z,97045.19
2022-11-04T16:13:05.033Z,97044.94
2022-11-04T16:15:32.231Z,97045.22
2022-11-04T16:17:58.540Z,97042.81
2022-11-04T16:20:24.868Z,97053.00
2022-11-04T16:22:51.206Z,97054.88
2022-11-04T16:25:17.529Z,97055.97
2022-11-04T16:27:44.085Z,97053.56
2022-11-04T16:30:10.379Z,97054.63
2022-11-04T16:32:36.706Z,97048.50
2022-11-04T16:35:03.969Z,97056.53
2022-11-04T16:37:30.405Z,97064.81
2022-11-04T16:39:57.998Z,97067.50
2022-11-04T16:42:24.282Z,97073.09
2022-11-04T16:44:50.665Z,97075.00
2022-11-04T16:47:16.928Z,97075.28
2022-11-04T16:49:43.751Z,97076.34
2022-11-04T16:52:10.056Z,97084.66
2022-11-04T16:54:37.300Z,97076.91
2022-11-04T16:57:03.578Z,97092.94
2022-11-04T16:59:29.933Z,97090.56
2022-11-04T17:01:56.442Z,97092.41
2022-11-04T17:04:22.895Z,97101.53
2022-11-04T17:06:49.306Z,97101.28
2022-11-04T17:09:15.572Z,97102.34
2022-11-04T17:11:42.569Z,97107.97
2022-11-04T17:14:08.951Z,97104.75
2022-11-04T17:16:35.366Z,97118.41
2022-11-04T17:19:04.826Z,97120.53
2022-11-04T17:21:31.314Z,97127.78
2022-11-04T17:23:58.832Z,97129.91
2022-11-04T17:26:25.099Z,97130.97
2022-11-04T17:28:51.941Z,97130.44
2022-11-04T17:31:18.301Z,97134.19
2022-11-04T17:33:44.672Z,97133.66
2022-11-04T17:36:11.487Z,97138.47
2022-11-04T17:38:37.755Z,97130.72
2022-11-04T17:44:07.146Z,97141.16
2022-11-04T17:46:33.981Z,97135.28
2022-11-04T17:49:00.398Z,97138.25
2022-11-04T17:51:27.555Z,97142.00
2022-11-04T17:53:53.827Z,97138.78
2022-11-04T17:56:20.059Z,97146.28
2022-11-04T17:58:46.489Z,97148.94
2022-11-04T18:01:12.745Z,97150.03
2022-11-04T18:03:39.684Z,97146.81
2022-11-04T18:06:06.840Z,97158.34
2022-11-04T18:08:34.051Z,97156.72
2022-11-04T18:11:00.612Z,97164.72
2022-11-04T18:13:26.882Z,97167.41
2022-11-04T18:15:53.168Z,97168.22
2022-11-04T18:18:20.883Z,97166.59
2022-11-04T18:20:47.565Z,97171.94
2022-11-04T18:23:13.792Z,97161.25
2022-11-04T18:25:39.965Z,97163.91
2022-11-04T18:28:06.270Z,97155.13
2022-11-04T18:30:32.550Z,97165.81
2022-11-04T18:32:58.854Z,97166.09
2022-11-04T18:35:25.147Z,97169.81
2022-11-04T18:37:51.467Z,97177.03
2022-11-04T18:40:17.908Z,97186.94
2022-11-04T18:42:44.181Z,97190.41
2022-11-04T18:45:10.481Z,97192.28
2022-11-04T18:47:37.442Z,97187.22
2022-11-04T18:50:04.343Z,97191.75
2022-11-04T18:52:30.637Z,97192.81
2022-11-04T18:55:03.985Z,97197.38
2022-11-04T18:57:30.378Z,97193.06
2022-11-04T19:00:00.062Z,97196.03
2022-11-04T19:02:26.501Z,97203.22
2022-11-04T19:05:05.539Z,97210.47
2022-11-04T19:07:31.813Z,97208.06
2022-11-04T19:09:58.154Z,97210.75
2022-11-04T19:12:24.451Z,97216.09
2022-11-04T19:14:50.809Z,97216.34
2022-11-04T19:17:17.006Z,97202.44
2022-11-04T19:19:43.345Z,97235.84
2022-11-04T19:22:09.727Z,97230.50
2022-11-04T19:24:37.020Z,97229.69
2022-11-04T19:27:03.361Z,97234.00
2022-11-04T19:29:30.030Z,97239.34
2022-11-04T19:31:56.250Z,97240.16
2022-11-04T19:34:22.658Z,97235.59
2022-11-04T19:36:48.985Z,97240.66
2022-11-04T19:39:15.174Z,97246.00
2022-11-04T19:41:42.308Z,97249.47
2022-11-04T19:44:09.898Z,97243.88
2022-11-04T19:46:36.187Z,97249.22
2022-11-04T19:49:03.191Z,97250.56
2022-11-04T19:51:32.190Z,97253.50
2022-11-04T19:53:58.651Z,97253.75
2022-11-04T19:56:25.092Z,97256.69
2022-11-04T19:58:51.481Z,97256.69
2022-11-04T20:01:19.295Z,97256.69
2022-11-04T20:03:45.623Z,97264.22
2022-11-04T20:06:12.033Z,97279.69
2022-11-04T20:08:38.915Z,97275.44
2022-11-04T20:11:05.138Z,97284.25
2022-11-04T20:13:31.443Z,97292.28
2022-11-04T20:15:57.800Z,97293.84
2022-11-04T20:18:24.783Z,97301.66
2022-11-04T20:20:52.349Z,97303.22
2022-11-04T20:23:18.844Z,97308.03
2022-11-04T20:25:45.225Z,97306.97
2022-11-04T20:28:12.589Z,97299.22
2022-11-04T20:30:39.495Z,97306.16
2022-11-04T20:33:05.761Z,97306.44
2022-11-04T20:35:32.066Z,97302.69
2022-11-04T20:37:58.372Z,97304.31
2022-11-04T20:40:24.732Z,97303.78
2022-11-04T20:42:51.461Z,97307.75
2022-11-04T20:45:20.873Z,97305.34
2022-11-04T20:47:47.156Z,97312.56
2022-11-04T20:50:13.441Z,97318.19
2022-11-04T20:52:39.806Z,97317.94
2022-11-04T20:55:06.107Z,97320.88
2022-11-04T20:57:32.439Z,97319.53
2022-11-04T20:59:58.720Z,97328.91
2022-11-04T21:02:25.416Z,97321.69
2022-11-04T21:04:51.781Z,97335.06
2022-11-04T21:07:18.181Z,97331.03
2022-11-04T21:09:46.283Z,97332.13
2022-11-04T21:12:12.600Z,97339.59
2022-11-04T21:14:38.958Z,97337.47
2022-11-04T21:17:05.234Z,97339.31
2022-11-04T21:19:31.790Z,97340.66
2022-11-04T21:21:58.187Z,97348.13
2022-11-04T21:24:24.499Z,97354.56
2022-11-04T21:26:50.821Z,97357.50
2022-11-04T21:29:21.322Z,97354.81
2022-11-04T21:31:48.960Z,97360.44
2022-11-04T21:34:15.355Z,97372.19
2022-11-04T21:36:41.652Z,97364.16
2022-11-04T21:39:07.972Z,97368.41
2022-11-04T21:41:34.264Z,97357.72
2022-11-04T21:44:00.613Z,97365.75
2022-11-04T21:46:27.045Z,97364.91
2022-11-04T21:48:53.405Z,97372.91
2022-11-04T21:51:19.709Z,97367.84
2022-11-04T21:53:46.042Z,97378.50
2022-11-04T21:56:12.327Z,97376.63
2022-11-04T21:58:38.614Z,97377.38
2022-11-04T22:01:05.676Z,97367.50
2022-11-04T22:03:32.055Z,97364.00
2022-11-04T22:05:58.368Z,97371.97
2022-11-04T22:08:27.757Z,97366.63
2022-11-04T22:10:54.027Z,97363.66
2022-11-04T22:13:20.529Z,97370.59
2022-11-04T22:15:46.885Z,97381.25
2022-11-04T22:18:13.635Z,97382.00
2022-11-04T22:20:40.220Z,97383.59
2022-11-04T22:23:06.695Z,97380.91
2022-11-04T22:25:33.087Z,97390.47
2022-11-04T22:27:59.498Z,97386.72
2022-11-04T22:30:25.800Z,97385.09
2022-11-04T22:32:52.054Z,97381.31
2022-11-04T22:35:18.276Z,97397.03
2022-11-04T22:37:44.570Z,97393.28
2022-11-04T22:40:10.800Z,97396.97
2022-11-04T22:42:37.569Z,97397.47
2022-11-04T22:45:03.875Z,97397.44
2022-11-04T22:47:30.287Z,97394.44
2022-11-04T22:49:56.600Z,97393.38
2022-11-04T22:52:22.855Z,97400.25
2022-11-04T22:54:49.161Z,97401.03
2022-11-04T22:57:15.416Z,97398.09
2022-11-04T22:59:42.233Z,97403.13
2022-11-04T23:02:08.558Z,97400.16
2022-11-04T23:04:34.907Z,97405.97
2022-11-04T23:07:01.200Z,97406.75
2022-11-04T23:09:28.142Z,97425.66
2022-11-04T23:11:55.367Z,97421.88
2022-11-04T23:14:23.071Z,97416.00
2022-11-04T23:16:49.346Z,97420.25
2022-11-04T23:19:15.617Z,97427.13
2022-11-04T23:21:41.924Z,97425.75
2022-11-04T23:24:08.238Z,97428.13
2022-11-04T23:26:34.625Z,97433.97
2022-11-04T23:29:01.960Z,97439.81
2022-11-04T23:31:28.195Z,97428.84
2022-11-04T23:33:54.484Z,97432.00
2022-11-04T23:36:20.969Z,97435.97
2022-11-04T23:38:50.312Z,97425.81
2022-11-04T23:41:17.015Z,97428.94
2022-11-04T23:43:43.290Z,97429.22
2022-11-04T23:46:10.719Z,97430.53
2022-11-04T23:48:37.071Z,97431.00
2022-11-04T23:51:03.549Z,97430.47
2022-11-04T23:53:30.409Z,97432.59
2022-11-04T23:55:57.026Z,97430.16
2022-11-04T23:58:29.412Z,97447.44
